Time;durP1;ratioP1;P1;durP2;ratioP2;P2;SDS_P1;SDS_P2;PMS_P1;PMS_P2;Temp;Humidity;BMP_temperature;BMP_pressure;BME280_temperature;BME280_humidity;BME280_pressure;Samples;Min_cycle;Max_cycle;Signal;HPM_P1;HPM_P2
2021/01/24 00:01:25;;;;;;;11.37;4.60;;;;;;;;;;4380149;32;20180;-77
2021/01/24 00:04:31;;;;;;;;;;;;;;;;;;;;;
2021/01/24 00:07:02;;;;;;;11.43;4.67;;;;;;;;;;4406319;32;20150;-77
2021/01/24 00:09:36;;;;;;;9.73;4.57;;;;;;;;;;4389135;32;20154;-77
2021/01/24 00:12:22;;;;;;;16.47;5.23;;;;;;;;;;4393043;32;20169;-77
2021/01/24 00:14:53;;;;;;;10.77;4.73;;;;;;;;;;4390617;32;20226;-77
2021/01/24 00:17:21;;;;;;;9.70;4.50;;;;;;;;;;4392798;32;20194;-78
2021/01/24 00:20:10;;;;;;;9.00;4.50;;;;;;;;;;4405881;32;20170;-78
2021/01/24 00:22:46;;;;;;;9.70;4.63;;;;;;;;;;4392360;32;20153;-77
2021/01/24 00:25:14;;;;;;;8.50;4.87;;;;;;;;;;4392097;32;20162;-78
2021/01/24 00:27:42;;;;;;;8.33;4.50;;;;;;;;;;4392241;32;20700;-78
2021/01/24 00:30:44;;;;;;;11.80;5.23;;;;;;;;;;4405079;32;20459;-77
2021/01/24 00:36:03;;;;;;;9.27;5.17;;;;;;;;;;4406728;32;20151;-77
2021/01/24 00:38:28;;;;;;;11.90;4.93;;;;;;;;;;4392857;32;20203;-78
2021/01/24 00:41:04;;;;;;;11.57;5.20;;;;;;;;;;4392016;32;20520;-78
2021/01/24 00:43:35;;;;;;;11.73;5.37;;;;;;;;;;4392520;32;20189;-78
2021/01/24 00:46:02;;;;;;;11.43;5.20;;;;;;;;;;4406170;32;20255;-77
2021/01/24 00:48:32;;;;;;;13.93;5.07;;;;;;;;;;4392564;32;20158;-77
2021/01/24 00:51:00;;;;;;;9.83;5.10;;;;;;;;;;4391902;32;20181;-77
2021/01/24 00:53:28;;;;;;;10.43;5.47;;;;;;;;;;4391913;32;20158;-77
2021/01/24 00:55:54;;;;;;;12.43;5.20;;;;;;;;;;4391839;32;20166;-77
2021/01/24 00:58:38;;;;;;;9.80;5.13;;;;;;;;;;4406839;32;20129;-78
2021/01/24 01:01:03;;;;;;;12.90;5.47;;;;;;;;;;4399413;32;20177;-78
2021/01/24 01:03:32;;;;;;;10.47;5.13;;;;;;;;;;4407164;32;20227;-77
2021/01/24 01:06:03;;;;;;;10.10;4.87;;;;;;;;;;4402527;32;20180;-78
2021/01/24 01:11:39;;;;;;;10.93;5.20;;;;;;;;;;4358665;32;20253;-77
2021/01/24 01:14:10;;;;;;;8.33;4.60;;;;;;;;;;4406903;32;20161;-78
2021/01/24 01:16:48;;;;;;;10.50;5.17;;;;;;;;;;4407575;32;20166;-77
2021/01/24 01:19:23;;;;;;;9.13;4.90;;;;;;;;;;4407266;32;20188;-78
2021/01/24 01:21:49;;;;;;;10.90;5.20;;;;;;;;;;4404687;32;20195;-77
2021/01/24 01:24:14;;;;;;;10.03;5.07;;;;;;;;;;4394860;32;20169;-77
2021/01/24 01:26:43;;;;;;;9.03;4.83;;;;;;;;;;4406615;32;20241;-77
2021/01/24 01:29:08;;;;;;;11.50;5.23;;;;;;;;;;4407043;32;20237;-77
2021/01/24 01:31:34;;;;;;;12.07;5.37;;;;;;;;;;4420831;32;20447;-77
2021/01/24 01:33:59;;;;;;;11.40;5.77;;;;;;;;;;4406586;32;20196;-77
2021/01/24 01:36:27;;;;;;;10.50;5.13;;;;;;;;;;4406484;32;20186;-77
2021/01/24 01:38:52;;;;;;;10.77;5.40;;;;;;;;;;4406435;32;20181;-77
2021/01/24 01:41:17;;;;;;;12.83;5.87;;;;;;;;;;4406663;32;20157;-77
2021/01/24 01:43:43;;;;;;;10.67;4.90;;;;;;;;;;4406384;32;20224;-77
2021/01/24 01:46:13;;;;;;;11.60;5.30;;;;;;;;;;4393726;32;20192;-77
2021/01/24 01:48:38;;;;;;;12.53;5.40;;;;;;;;;;4406840;32;20595;-77
2021/01/24 01:51:13;;;;;;;11.83;5.67;;;;;;;;;;4421295;32;20562;-77
2021/01/24 01:53:46;;;;;;;10.83;5.60;;;;;;;;;;4406823;32;20575;-77
2021/01/24 01:56:14;;;;;;;13.17;6.00;;;;;;;;;;4406615;32;20609;-77
2021/01/24 01:58:40;;;;;;;11.27;5.73;;;;;;;;;;4406243;32;20220;-77
2021/01/24 02:01:12;;;;;;;11.00;5.20;;;;;;;;;;4406162;32;20197;-77
2021/01/24 02:03:42;;;;;;;11.10;5.37;;;;;;;;;;4406615;32;20157;-77
2021/01/24 02:06:18;;;;;;;11.37;5.03;;;;;;;;;;4406841;32;20587;-77
2021/01/24 02:12:15;;;;;;;;;;;;;;;;;;;;;
2021/01/24 02:14:53;;;;;;;6.60;3.83;;;;;;;;;;4416736;32;20154;-77
2021/01/24 02:17:21;;;;;;;9.20;4.67;;;;;;;;;;4407159;32;20188;-77
2021/01/24 02:19:56;;;;;;;9.47;4.17;;;;;;;;;;4409195;32;20150;-77
2021/01/24 02:22:38;;;;;;;7.47;3.90;;;;;;;;;;4409241;32;20180;-77
2021/01/24 02:25:26;;;;;;;6.70;4.17;;;;;;;;;;4409982;32;20165;-77
2021/01/24 02:28:20;;;;;;;8.30;4.40;;;;;;;;;;4409138;32;20162;-77
2021/01/24 02:30:46;;;;;;;8.57;4.70;;;;;;;;;;4381752;32;20161;-77
2021/01/24 02:33:17;;;;;;;7.73;4.23;;;;;;;;;;4409448;32;20611;-77
2021/01/24 02:35:56;;;;;;;7.30;3.80;;;;;;;;;;4423330;32;20151;-77
2021/01/24 02:41:25;;;;;;;6.67;3.23;;;;;;;;;;4394053;32;20169;-77
2021/01/24 02:43:55;;;;;;;6.97;3.47;;;;;;;;;;4423630;32;20125;-77
2021/01/24 02:46:22;;;;;;;4.80;2.80;;;;;;;;;;4423487;32;20172;-77
2021/01/24 02:48:58;;;;;;;6.43;3.10;;;;;;;;;;4422905;32;20153;-77
2021/01/24 02:51:24;;;;;;;7.37;2.67;;;;;;;;;;4408988;32;20161;-77
2021/01/24 02:53:58;;;;;;;7.67;2.50;;;;;;;;;;4408943;32;20641;-77
2021/01/24 02:56:24;;;;;;;5.77;2.07;;;;;;;;;;4409335;32;20154;-77
2021/01/24 02:59:18;;;;;;;4.77;2.13;;;;;;;;;;4422458;32;20215;-76
2021/01/24 03:04:51;;;;;;;;;;;;;;;;;;;;;
2021/01/24 03:07:21;;;;;;;1.40;0.93;;;;;;;;;;4423005;32;20578;-77
2021/01/24 03:09:58;;;;;;;0.90;0.77;;;;;;;;;;4409037;32;20177;-77
2021/01/24 03:12:47;;;;;;;;;;;;;;;;;;;;;
2021/01/24 03:15:38;;;;;;;1.93;0.90;;;;;;;;;;4423232;32;20137;-77
2021/01/24 03:18:12;;;;;;;1.13;1.03;;;;;;;;;;4411382;32;20148;-77
2021/01/24 03:21:04;;;;;;;1.77;0.70;;;;;;;;;;4419489;32;20502;-77
2021/01/24 03:23:35;;;;;;;1.67;0.73;;;;;;;;;;4408797;32;20223;-77
2021/01/24 03:26:24;;;;;;;1.30;0.63;;;;;;;;;;4421927;32;20161;-77
2021/01/24 03:29:20;;;;;;;1.00;0.67;;;;;;;;;;4420904;32;20629;-78
2021/01/24 03:32:05;;;;;;;3.77;0.90;;;;;;;;;;4408896;32;20226;-77
2021/01/24 03:34:31;;;;;;;4.20;0.80;;;;;;;;;;4408638;32;20200;-77
2021/01/24 03:37:00;;;;;;;0.97;0.90;;;;;;;;;;4422383;32;20126;-77
2021/01/24 03:39:31;;;;;;;1.43;0.80;;;;;;;;;;4422450;32;20219;-77
2021/01/24 03:42:03;;;;;;;1.53;0.90;;;;;;;;;;4408221;32;20180;-77
2021/01/24 03:44:29;;;;;;;4.47;1.07;;;;;;;;;;4408325;32;20165;-77
2021/01/24 03:46:57;;;;;;;4.03;1.60;;;;;;;;;;4408103;32;20218;-77
2021/01/24 03:49:31;;;;;;;3.50;1.17;;;;;;;;;;4407920;32;20222;-78
2021/01/24 03:52:16;;;;;;;4.23;0.90;;;;;;;;;;4408491;32;20169;-78
2021/01/24 03:54:52;;;;;;;2.70;0.93;;;;;;;;;;4407897;32;20232;-79
2021/01/24 03:57:30;;;;;;;3.30;0.80;;;;;;;;;;4408256;32;20187;-79
2021/01/24 03:59:58;;;;;;;2.50;0.90;;;;;;;;;;4407811;32;20168;-79
2021/01/24 04:03:00;;;;;;;1.93;0.90;;;;;;;;;;4407873;32;20189;-79
2021/01/24 04:05:34;;;;;;;3.70;0.90;;;;;;;;;;4407429;32;20207;-79
2021/01/24 04:08:14;;;;;;;0.97;0.70;;;;;;;;;;4408696;32;20150;-79
2021/01/24 04:11:32;;;;;;;1.67;0.80;;;;;;;;;;4402985;32;20215;-79
2021/01/24 04:23:28;;;;;;;;;;;;;;;;;;;;;
2021/01/24 04:26:52;;;;;;;1.33;0.70;;;;;;;;;;4344015;33;20174;-80
2021/01/24 04:31:59;;;;;;;1.57;0.90;;;;;;;;;;4421911;32;20214;-80
2021/01/24 04:34:30;;;;;;;2.43;0.97;;;;;;;;;;4407289;32;20153;-81
2021/01/24 04:37:02;;;;;;;2.87;1.00;;;;;;;;;;4407978;32;20187;-81
2021/01/24 04:39:34;;;;;;;1.60;0.90;;;;;;;;;;4407549;32;20195;-81
2021/01/24 04:41:59;;;;;;;3.23;0.90;;;;;;;;;;4421788;32;20614;-81
2021/01/24 04:44:25;;;;;;;2.77;1.00;;;;;;;;;;4407438;32;20165;-80
2021/01/24 04:46:50;;;;;;;2.10;0.80;;;;;;;;;;4420919;32;20142;-81
2021/01/24 04:49:19;;;;;;;1.37;0.80;;;;;;;;;;4421140;32;20567;-80
2021/01/24 04:51:47;;;;;;;3.60;1.17;;;;;;;;;;4420917;32;20204;-80
2021/01/24 04:54:17;;;;;;;4.93;0.97;;;;;;;;;;4421587;32;20503;-80
2021/01/24 04:56:42;;;;;;;2.60;0.93;;;;;;;;;;4407101;32;20587;-80
2021/01/24 04:59:07;;;;;;;4.13;1.10;;;;;;;;;;4420754;32;20146;-80
2021/01/24 05:01:35;;;;;;;2.87;1.13;;;;;;;;;;4407050;32;20599;-80
2021/01/24 05:04:07;;;;;;;1.83;0.97;;;;;;;;;;4420577;32;20165;-80
2021/01/24 05:06:32;;;;;;;5.23;1.33;;;;;;;;;;4406852;32;20575;-80
2021/01/24 05:09:00;;;;;;;2.97;1.20;;;;;;;;;;4394902;32;20165;-79
2021/01/24 05:11:29;;;;;;;4.47;1.30;;;;;;;;;;4392254;32;20196;-80
2021/01/24 05:14:14;;;;;;;3.23;1.17;;;;;;;;;;4392142;32;20649;-79
2021/01/24 05:16:48;;;;;;;2.53;1.20;;;;;;;;;;4405451;32;20201;-79
2021/01/24 05:19:13;;;;;;;7.57;1.37;;;;;;;;;;4391548;32;20173;-81
2021/01/24 05:21:46;;;;;;;4.30;1.40;;;;;;;;;;4391893;32;20249;-80
2021/01/24 05:24:13;;;;;;;6.23;1.30;;;;;;;;;;4391897;32;20177;-81
2021/01/24 05:26:47;;;;;;;4.00;1.40;;;;;;;;;;4391660;32;20158;-80
2021/01/24 05:32:39;;;;;;;3.83;1.93;;;;;;;;;;4405729;32;20140;-80
2021/01/24 05:35:19;;;;;;;3.87;1.63;;;;;;;;;;4391857;32;20244;-80
2021/01/24 05:38:07;;;;;;;3.03;1.13;;;;;;;;;;4405521;32;20156;-80
2021/01/24 05:40:35;;;;;;;4.97;1.77;;;;;;;;;;4392126;32;20154;-81
2021/01/24 05:43:03;;;;;;;5.17;1.57;;;;;;;;;;4391411;32;20268;-80
2021/01/24 05:45:41;;;;;;;3.17;1.80;;;;;;;;;;4391178;32;20675;-80
2021/01/24 05:48:08;;;;;;;5.47;1.83;;;;;;;;;;4391869;32;20272;-80
2021/01/24 05:50:53;;;;;;;;;;;;;;;;;;;;;
2021/01/24 05:56:54;;;;;;;;;;;;;;;;;;;;;
2021/01/24 05:59:49;;;;;;;3.60;2.40;;;;;;;;;;4342565;32;20154;-82
2021/01/24 06:02:15;;;;;;;8.07;2.77;;;;;;;;;;4357735;32;20728;-81
2021/01/24 06:04:44;;;;;;;5.33;2.67;;;;;;;;;;4391054;32;20174;-81
2021/01/24 06:07:09;;;;;;;5.33;2.93;;;;;;;;;;4390371;32;20237;-81
2021/01/24 06:09:35;;;;;;;3.23;2.37;;;;;;;;;;4391154;32;20599;-81
2021/01/24 06:12:17;;;;;;;5.47;2.10;;;;;;;;;;4405437;32;20164;-80
2021/01/24 06:21:01;;;;;;;4.67;2.30;;;;;;;;;;4329082;33;20154;-81
2021/01/24 06:23:36;;;;;;;4.70;2.43;;;;;;;;;;4382067;32;20157;-80
2021/01/24 06:26:30;;;;;;;5.23;1.80;;;;;;;;;;4391347;32;20168;-80
2021/01/24 06:29:22;;;;;;;6.43;1.60;;;;;;;;;;4363186;32;20165;-80
2021/01/24 06:31:47;;;;;;;6.07;1.57;;;;;;;;;;4404648;32;20617;-79
2021/01/24 06:34:33;;;;;;;6.03;1.80;;;;;;;;;;4404625;32;20150;-79
2021/01/24 06:40:29;;;;;;;;;;;;;;;;;;;;;
2021/01/24 06:43:32;;;;;;;2.37;0.60;;;;;;;;;;4404938;32;20135;-80
2021/01/24 06:54:56;;;;;;;2.50;0.60;;;;;;;;;;4404924;32;20137;-82
2021/01/24 06:57:40;;;;;;;2.87;0.67;;;;;;;;;;4372290;32;20177;-83
2021/01/24 07:00:21;;;;;;;3.20;0.63;;;;;;;;;;4358956;32;20599;-82
2021/01/24 07:03:11;;;;;;;1.13;0.60;;;;;;;;;;4359485;32;20221;-82
2021/01/24 07:08:49;;;;;;;2.37;0.60;;;;;;;;;;4375373;32;20270;-80
2021/01/24 07:11:34;;;;;;;1.90;0.60;;;;;;;;;;4362602;32;20655;-81
2021/01/24 07:14:36;;;;;;;1.90;0.57;;;;;;;;;;4303453;33;20195;-81
2021/01/24 07:17:04;;;;;;;3.17;0.87;;;;;;;;;;4362525;32;20247;-81
2021/01/24 07:22:32;;;;;;;8.00;1.00;;;;;;;;;;4374764;32;20185;-84
2021/01/24 07:25:01;;;;;;;3.27;1.07;;;;;;;;;;4374373;32;20169;-81
2021/01/24 07:30:49;;;;;;;;;;;;;;;;;;;;;
2021/01/24 07:36:38;;;;;;;3.73;1.73;;;;;;;;;;4407092;32;20145;-82
2021/01/24 07:39:09;;;;;;;5.00;2.07;;;;;;;;;;4406853;32;20130;-82
2021/01/24 07:41:37;;;;;;;5.43;2.30;;;;;;;;;;4407162;32;20495;-82
2021/01/24 07:44:03;;;;;;;6.73;2.80;;;;;;;;;;4407228;32;20130;-81
2021/01/24 07:46:31;;;;;;;8.70;2.77;;;;;;;;;;4392404;32;20188;-82
2021/01/24 07:48:56;;;;;;;5.33;2.93;;;;;;;;;;4392737;32;20178;-80
2021/01/24 07:51:24;;;;;;;9.03;3.47;;;;;;;;;;4406533;32;20138;-81
2021/01/24 07:53:56;;;;;;;5.97;2.83;;;;;;;;;;4392531;32;20197;-81
2021/01/24 07:56:29;;;;;;;6.53;2.70;;;;;;;;;;4405776;32;20254;-84
2021/01/24 07:58:54;;;;;;;4.80;2.43;;;;;;;;;;4406477;32;20226;-81
2021/01/24 08:01:25;;;;;;;7.30;2.90;;;;;;;;;;4407147;32;20658;-81
2021/01/24 08:03:53;;;;;;;6.60;2.87;;;;;;;;;;4421975;32;20154;-81
2021/01/24 08:06:28;;;;;;;9.93;3.67;;;;;;;;;;4407707;32;20180;-81
2021/01/24 08:08:53;;;;;;;8.10;3.10;;;;;;;;;;4407829;32;20223;-81
2021/01/24 08:11:19;;;;;;;6.60;3.20;;;;;;;;;;4408096;32;20180;-80
2021/01/24 08:14:02;;;;;;;7.93;3.30;;;;;;;;;;4407610;32;20501;-82
2021/01/24 08:16:48;;;;;;;6.63;2.93;;;;;;;;;;4408504;32;20176;-82
2021/01/24 08:19:20;;;;;;;9.07;3.60;;;;;;;;;;4421737;32;20149;-81
2021/01/24 08:21:57;;;;;;;5.73;3.00;;;;;;;;;;4407861;32;20224;-80
2021/01/24 08:24:25;;;;;;;8.97;3.77;;;;;;;;;;4421199;32;20187;-81
2021/01/24 08:27:17;;;;;;;8.37;4.20;;;;;;;;;;4407177;32;20584;-81
2021/01/24 08:29:45;;;;;;;8.67;4.20;;;;;;;;;;4410163;32;20192;-81
2021/01/24 08:32:17;;;;;;;7.23;3.53;;;;;;;;;;4407478;32;20185;-80
2021/01/24 08:34:42;;;;;;;9.00;4.00;;;;;;;;;;4407588;32;20165;-82
2021/01/24 08:37:17;;;;;;;11.33;4.20;;;;;;;;;;4407285;32;20161;-82
2021/01/24 08:40:17;;;;;;;7.50;4.43;;;;;;;;;;4407021;32;20150;-81
2021/01/24 08:42:55;;;;;;;11.17;4.67;;;;;;;;;;4420245;32;20178;-80
2021/01/24 08:45:38;;;;;;;10.30;4.43;;;;;;;;;;4420879;32;20250;-80
2021/01/24 08:48:26;;;;;;;;;;;;;;;;;;;;;
2021/01/24 08:51:00;;;;;;;10.30;4.93;;;;;;;;;;4421414;32;20161;-79
2021/01/24 08:53:36;;;;;;;10.40;5.20;;;;;;;;;;4407137;32;20259;-79
2021/01/24 08:56:23;;;;;;;9.93;5.30;;;;;;;;;;4406639;32;20187;-79
2021/01/24 08:58:58;;;;;;;9.33;5.67;;;;;;;;;;4395238;32;20195;-81
2021/01/24 09:01:23;;;;;;;14.40;6.20;;;;;;;;;;4396096;32;20220;-80
2021/01/24 09:03:48;;;;;;;11.20;5.80;;;;;;;;;;4384819;32;20704;-81
2021/01/24 09:06:15;;;;;;;10.57;5.30;;;;;;;;;;4391894;32;20212;-80
2021/01/24 09:08:52;;;;;;;11.07;6.10;;;;;;;;;;4418583;32;20192;-79
2021/01/24 09:11:18;;;;;;;15.17;7.33;;;;;;;;;;4420362;32;20141;-80
2021/01/24 09:13:43;;;;;;;20.07;7.60;;;;;;;;;;4407366;32;20277;-81
2021/01/24 09:16:11;;;;;;;12.90;6.57;;;;;;;;;;4391648;32;20272;-79
2021/01/24 09:18:36;;;;;;;13.40;6.63;;;;;;;;;;4414038;32;20142;-80
2021/01/24 09:21:06;;;;;;;12.03;6.17;;;;;;;;;;4394918;32;20188;-80
2021/01/24 09:23:31;;;;;;;14.87;6.77;;;;;;;;;;4420087;32;20589;-77
2021/01/24 09:25:56;;;;;;;11.30;6.17;;;;;;;;;;4406573;32;20150;-79
2021/01/24 09:28:21;;;;;;;12.03;6.47;;;;;;;;;;4390283;32;20342;-80
2021/01/24 09:30:50;;;;;;;12.73;6.47;;;;;;;;;;4405408;32;20134;-79
2021/01/24 09:33:16;;;;;;;12.40;6.30;;;;;;;;;;4378669;32;20189;-79
2021/01/24 09:35:41;;;;;;;8.87;5.83;;;;;;;;;;4380887;32;20221;-79
2021/01/24 09:38:06;;;;;;;13.33;6.30;;;;;;;;;;4393051;32;20173;-81
2021/01/24 09:40:34;;;;;;;13.23;5.77;;;;;;;;;;4390889;32;20225;-78
2021/01/24 09:42:59;;;;;;;9.67;6.07;;;;;;;;;;4404308;32;20186;-78
2021/01/24 09:45:27;;;;;;;9.10;5.87;;;;;;;;;;4410236;32;20679;-78
2021/01/24 09:47:54;;;;;;;9.83;5.57;;;;;;;;;;4405017;32;20562;-79
2021/01/24 09:50:36;;;;;;;11.00;6.00;;;;;;;;;;4390981;32;20213;-79
2021/01/24 09:53:28;;;;;;;12.83;5.77;;;;;;;;;;4390547;32;20517;-79
2021/01/24 09:55:57;;;;;;;12.77;4.90;;;;;;;;;;4390932;32;20154;-78
2021/01/24 09:58:23;;;;;;;12.00;4.83;;;;;;;;;;4404864;32;20137;-79
2021/01/24 10:00:48;;;;;;;10.70;4.73;;;;;;;;;;4391788;32;20189;-78
2021/01/24 10:03:14;;;;;;;14.77;4.70;;;;;;;;;;4390627;32;20174;-79
2021/01/24 10:05:40;;;;;;;9.63;4.30;;;;;;;;;;4390944;32;20236;-78
2021/01/24 10:08:06;;;;;;;9.77;4.60;;;;;;;;;;4404897;32;20141;-79
2021/01/24 10:10:31;;;;;;;7.57;3.40;;;;;;;;;;4390809;32;20158;-73
2021/01/24 10:12:57;;;;;;;8.10;3.93;;;;;;;;;;4390672;32;20184;-72
2021/01/24 10:15:22;;;;;;;6.53;3.50;;;;;;;;;;4404548;32;20200;-75
2021/01/24 10:17:48;;;;;;;8.33;3.67;;;;;;;;;;4390679;32;20591;-73
2021/01/24 10:20:13;;;;;;;11.23;4.27;;;;;;;;;;4390716;32;20482;-74
2021/01/24 10:22:38;;;;;;;7.73;3.70;;;;;;;;;;4390505;32;20610;-74
2021/01/24 10:25:04;;;;;;;11.43;4.23;;;;;;;;;;4404299;32;20551;-74
2021/01/24 10:27:29;;;;;;;8.07;3.33;;;;;;;;;;4390464;32;20633;-73
2021/01/24 10:29:54;;;;;;;6.67;3.07;;;;;;;;;;4390542;32;20158;-74
2021/01/24 10:32:20;;;;;;;10.30;3.60;;;;;;;;;;4402776;32;20201;-74
2021/01/24 10:34:48;;;;;;;9.77;4.10;;;;;;;;;;4416682;32;20497;-74
2021/01/24 10:37:13;;;;;;;7.50;3.20;;;;;;;;;;4405913;32;20170;-73
2021/01/24 10:39:39;;;;;;;10.87;3.33;;;;;;;;;;4422239;32;20134;-71
2021/01/24 10:42:04;;;;;;;10.00;3.60;;;;;;;;;;4422911;32;20142;-74
2021/01/24 10:44:30;;;;;;;8.60;3.30;;;;;;;;;;4408642;32;20396;-73
2021/01/24 10:46:55;;;;;;;6.73;2.83;;;;;;;;;;4422586;32;20142;-75
2021/01/24 10:49:20;;;;;;;8.63;3.53;;;;;;;;;;4409023;32;20158;-74
2021/01/24 10:51:46;;;;;;;9.07;3.93;;;;;;;;;;4408976;32;20200;-74
2021/01/24 10:54:11;;;;;;;9.43;3.00;;;;;;;;;;4422789;32;20133;-73
2021/01/24 10:56:36;;;;;;;7.57;3.03;;;;;;;;;;4408225;32;20162;-73
2021/01/24 10:59:02;;;;;;;7.03;2.63;;;;;;;;;;4422220;32;20130;-74
2021/01/24 11:01:27;;;;;;;6.20;2.53;;;;;;;;;;4419183;32;20172;-73
2021/01/24 11:03:55;;;;;;;5.60;2.40;;;;;;;;;;4404026;32;20173;-75
2021/01/24 11:06:23;;;;;;;6.33;2.60;;;;;;;;;;4410119;32;20216;-73
2021/01/24 11:08:48;;;;;;;7.63;2.80;;;;;;;;;;4417913;32;20150;-74
2021/01/24 11:11:13;;;;;;;4.67;2.00;;;;;;;;;;4407087;32;20219;-73
2021/01/24 11:13:39;;;;;;;4.60;2.30;;;;;;;;;;4392221;32;20169;-73
2021/01/24 11:16:04;;;;;;;8.73;2.13;;;;;;;;;;4405038;32;20176;-74
2021/01/24 11:18:29;;;;;;;4.90;2.30;;;;;;;;;;4403550;32;20282;-73
2021/01/24 11:20:55;;;;;;;4.93;1.83;;;;;;;;;;4416318;32;20138;-73
2021/01/24 11:23:20;;;;;;;5.13;1.90;;;;;;;;;;4407844;32;20180;-73
2021/01/24 11:25:53;;;;;;;5.57;1.83;;;;;;;;;;4408019;32;20161;-73
2021/01/24 11:28:18;;;;;;;4.87;1.77;;;;;;;;;;4408273;32;20162;-73
2021/01/24 11:30:43;;;;;;;6.23;1.70;;;;;;;;;;4414267;32;20169;-72
2021/01/24 11:33:12;;;;;;;5.43;1.73;;;;;;;;;;4389585;32;20598;-74
2021/01/24 11:35:37;;;;;;;4.18;1.60;;;;;;;;;;4390148;32;20173;-75
2021/01/24 11:38:03;;;;;;;8.02;1.92;;;;;;;;;;4401357;32;20322;-74
2021/01/24 11:40:28;;;;;;;3.95;2.00;;;;;;;;;;4406596;32;20217;-75
2021/01/24 11:42:53;;;;;;;4.22;1.90;;;;;;;;;;4392801;32;20180;-75
2021/01/24 11:45:21;;;;;;;3.75;1.98;;;;;;;;;;4406780;32;20146;-75
2021/01/24 11:48:05;;;;;;;4.68;1.92;;;;;;;;;;4392592;32;20800;-75
2021/01/24 11:50:31;;;;;;;7.62;2.25;;;;;;;;;;4394527;32;20154;-75
2021/01/24 11:52:56;;;;;;;3.37;2.25;;;;;;;;;;4408225;32;20180;-75
2021/01/24 11:55:24;;;;;;;5.18;2.58;;;;;;;;;;4407780;32;20199;-75
2021/01/24 11:57:52;;;;;;;3.30;2.10;;;;;;;;;;4407569;32;20150;-77
2021/01/24 12:00:18;;;;;;;5.32;2.12;;;;;;;;;;4404203;32;20181;-76
2021/01/24 12:02:46;;;;;;;4.07;1.90;;;;;;;;;;4391904;32;20174;-75
2021/01/24 12:05:11;;;;;;;4.72;1.95;;;;;;;;;;4392508;32;20157;-75
2021/01/24 12:07:37;;;;;;;4.72;2.00;;;;;;;;;;4392142;32;20197;-75
2021/01/24 12:10:05;;;;;;;5.97;1.90;;;;;;;;;;4391899;32;20525;-74
2021/01/24 12:12:30;;;;;;;3.53;1.87;;;;;;;;;;4406650;32;20170;-74
2021/01/24 12:14:55;;;;;;;3.10;1.70;;;;;;;;;;4392314;32;20158;-75
2021/01/24 12:17:24;;;;;;;6.05;1.70;;;;;;;;;;4406492;32;20142;-75
2021/01/24 12:19:55;;;;;;;6.15;1.90;;;;;;;;;;4392361;32;20491;-75
2021/01/24 12:22:23;;;;;;;3.87;1.75;;;;;;;;;;4392251;32;20660;-75
2021/01/24 12:24:48;;;;;;;5.03;2.20;;;;;;;;;;4391854;32;20184;-75
2021/01/24 12:27:16;;;;;;;4.97;1.90;;;;;;;;;;4392239;32;20165;-75
2021/01/24 12:29:49;;;;;;;5.67;2.30;;;;;;;;;;4391659;32;20239;-76
2021/01/24 12:32:29;;;;;;;4.10;2.00;;;;;;;;;;4393944;32;20513;-75
2021/01/24 12:34:54;;;;;;;4.17;2.03;;;;;;;;;;4407057;32;20146;-76
2021/01/24 12:37:20;;;;;;;3.13;1.90;;;;;;;;;;4406995;32;20302;-75
2021/01/24 12:39:45;;;;;;;5.67;2.27;;;;;;;;;;4406803;32;20229;-75
2021/01/24 12:42:18;;;;;;;4.20;2.00;;;;;;;;;;4420785;32;20130;-74
2021/01/24 12:44:43;;;;;;;4.80;2.43;;;;;;;;;;4407143;32;20195;-75
2021/01/24 12:47:12;;;;;;;9.17;2.37;;;;;;;;;;4407368;32;20483;-76
2021/01/24 12:49:49;;;;;;;5.93;2.30;;;;;;;;;;4406935;32;20158;-75
2021/01/24 12:52:14;;;;;;;4.63;2.60;;;;;;;;;;4406902;32;20154;-75
2021/01/24 12:54:40;;;;;;;6.10;2.60;;;;;;;;;;4406735;32;20230;-74
2021/01/24 12:57:05;;;;;;;6.87;2.50;;;;;;;;;;4406456;32;20228;-75
2021/01/24 12:59:31;;;;;;;4.60;2.30;;;;;;;;;;4406688;32;20174;-76
2021/01/24 13:02:03;;;;;;;5.97;2.70;;;;;;;;;;4405701;32;20215;-78
2021/01/24 13:04:29;;;;;;;5.87;2.27;;;;;;;;;;4406379;32;20172;-75
2021/01/24 13:06:54;;;;;;;8.03;2.47;;;;;;;;;;4420658;32;20133;-75
2021/01/24 13:09:22;;;;;;;5.67;2.53;;;;;;;;;;4420346;32;20204;-75
2021/01/24 13:11:50;;;;;;;7.10;2.43;;;;;;;;;;4406786;32;20188;-74
2021/01/24 13:14:19;;;;;;;6.00;2.43;;;;;;;;;;4405851;32;20616;-76
2021/01/24 13:17:01;;;;;;;6.63;2.80;;;;;;;;;;4404126;32;20192;-75
2021/01/24 13:19:55;;;;;;;6.73;2.57;;;;;;;;;;4420066;32;20144;-76
2021/01/24 13:22:27;;;;;;;6.60;2.97;;;;;;;;;;4420001;32;20168;-73
2021/01/24 13:25:21;;;;;;;9.67;3.00;;;;;;;;;;4420097;32;20220;-75
2021/01/24 13:28:01;;;;;;;8.17;3.20;;;;;;;;;;4405258;32;20161;-76
2021/01/24 13:30:26;;;;;;;7.43;3.17;;;;;;;;;;4389528;32;20202;-74
2021/01/24 13:32:54;;;;;;;6.27;2.83;;;;;;;;;;4404747;32;20176;-74
2021/01/24 13:35:44;;;;;;;;;;;;;;;;;;;;;
2021/01/24 13:38:15;;;;;;;6.43;3.07;;;;;;;;;;4404881;32;20151;-77
2021/01/24 13:40:55;;;;;;;6.43;3.43;;;;;;;;;;4405269;32;20192;-77
2021/01/24 13:43:32;;;;;;;9.00;2.70;;;;;;;;;;4391219;32;20196;-77
2021/01/24 13:46:00;;;;;;;6.50;3.00;;;;;;;;;;4390990;32;20153;-78
2021/01/24 13:48:28;;;;;;;5.03;2.70;;;;;;;;;;4390536;32;20215;-77
2021/01/24 13:50:57;;;;;;;8.53;2.90;;;;;;;;;;4391451;32;20595;-77
2021/01/24 13:53:47;;;;;;;;;;;;;;;;;;;;;
2021/01/24 13:56:18;;;;;;;6.17;3.50;;;;;;;;;;4404995;32;20172;-77
2021/01/24 13:58:55;;;;;;;5.60;3.30;;;;;;;;;;4404992;32;20541;-77
2021/01/24 14:01:41;;;;;;;7.63;3.70;;;;;;;;;;4391199;32;20196;-78
2021/01/24 14:04:27;;;;;;;8.23;4.47;;;;;;;;;;4389737;32;20191;-78
2021/01/24 14:06:56;;;;;;;9.70;4.40;;;;;;;;;;4389477;32;20147;-77
2021/01/24 14:09:24;;;;;;;9.60;4.17;;;;;;;;;;4375912;32;20572;-78
2021/01/24 14:11:57;;;;;;;8.63;4.47;;;;;;;;;;4375606;32;20158;-78
2021/01/24 14:14:28;;;;;;;9.47;4.77;;;;;;;;;;4383346;32;20157;-77
2021/01/24 14:19:55;;;;;;;10.00;4.70;;;;;;;;;;4362554;32;20159;-78
2021/01/24 14:22:20;;;;;;;11.53;5.27;;;;;;;;;;4404887;32;20197;-78
2021/01/24 14:24:51;;;;;;;9.23;5.17;;;;;;;;;;4393974;32;20192;-77
2021/01/24 14:27:42;;;;;;;9.20;5.40;;;;;;;;;;4408564;32;20144;-78
2021/01/24 14:30:31;;;;;;;;;;;;;;;;;;;;;
2021/01/24 14:33:18;;;;;;;;;;;;;;;;;;;;;
2021/01/24 14:35:45;;;;;;;11.80;8.07;;;;;;;;;;4408219;32;20491;-77
2021/01/24 14:38:14;;;;;;;11.60;6.00;;;;;;;;;;4393044;32;20189;-78
2021/01/24 14:40:45;;;;;;;11.13;6.57;;;;;;;;;;4393632;32;20254;-78
2021/01/24 14:43:14;;;;;;;11.50;6.47;;;;;;;;;;4393725;32;20221;-78
2021/01/24 14:45:48;;;;;;;10.57;6.47;;;;;;;;;;4381320;32;20233;-78
2021/01/24 14:48:16;;;;;;;9.27;6.17;;;;;;;;;;4407759;32;20146;-78
2021/01/24 14:50:42;;;;;;;10.77;5.80;;;;;;;;;;4393747;32;20166;-79
2021/01/24 14:53:35;;;;;;;;;;;;;;;;;;;;;
2021/01/24 14:56:03;;;;;;;10.47;5.90;;;;;;;;;;4407620;32;20437;-79
2021/01/24 14:58:31;;;;;;;13.13;6.47;;;;;;;;;;4392925;32;20162;-78
2021/01/24 15:00:56;;;;;;;10.53;6.20;;;;;;;;;;4393440;32;20619;-77
2021/01/24 15:03:29;;;;;;;9.23;5.80;;;;;;;;;;4405052;32;20201;-77
2021/01/24 15:05:58;;;;;;;10.27;6.20;;;;;;;;;;4408398;32;20169;-78
2021/01/24 15:08:26;;;;;;;12.20;5.97;;;;;;;;;;4396126;32;20170;-79
2021/01/24 15:11:12;;;;;;;14.07;6.67;;;;;;;;;;4395304;32;20181;-79
2021/01/24 15:13:38;;;;;;;11.50;6.33;;;;;;;;;;4408218;32;20204;-78
2021/01/24 15:16:10;;;;;;;14.33;6.93;;;;;;;;;;4401421;32;20503;-78
2021/01/24 15:18:38;;;;;;;13.27;7.27;;;;;;;;;;4393027;32;20158;-77
2021/01/24 15:21:04;;;;;;;13.20;7.13;;;;;;;;;;4393151;32;20182;-78
2021/01/24 15:23:42;;;;;;;14.17;6.93;;;;;;;;;;4393078;32;20238;-76
2021/01/24 15:26:16;;;;;;;11.77;6.80;;;;;;;;;;4391819;32;20279;-75
2021/01/24 15:28:51;;;;;;;16.10;6.80;;;;;;;;;;4393058;32;20149;-78
2021/01/24 15:31:16;;;;;;;11.10;6.50;;;;;;;;;;4393111;32;20220;-78
2021/01/24 15:33:45;;;;;;;13.53;7.10;;;;;;;;;;4392388;32;20494;-79
2021/01/24 15:36:13;;;;;;;12.90;7.50;;;;;;;;;;4392622;32;20271;-78
2021/01/24 15:38:44;;;;;;;16.20;7.27;;;;;;;;;;4392907;32;20170;-79
2021/01/24 15:41:17;;;;;;;14.63;7.53;;;;;;;;;;4392528;32;20189;-79
2021/01/24 15:43:50;;;;;;;13.23;7.17;;;;;;;;;;4392109;32;20192;-78
2021/01/24 15:46:15;;;;;;;14.07;7.97;;;;;;;;;;4407739;32;20173;-74
2021/01/24 15:48:48;;;;;;;12.67;7.67;;;;;;;;;;4407101;32;20495;-77
2021/01/24 15:51:14;;;;;;;18.23;8.30;;;;;;;;;;4407367;32;20641;-77
2021/01/24 15:54:32;;;;;;;14.93;8.03;;;;;;;;;;4407748;32;20162;-78
2021/01/24 15:56:53;;;;;;;14.20;7.57;;;;;;;;;;4418224;32;20216;-79
2021/01/24 15:59:18;;;;;;;15.10;7.53;;;;;;;;;;4407417;32;20169;-77
2021/01/24 16:01:44;;;;;;;14.37;8.10;;;;;;;;;;4407311;32;20192;-78
2021/01/24 16:04:10;;;;;;;16.73;7.97;;;;;;;;;;4407359;32;20154;-78
2021/01/24 16:06:38;;;;;;;15.13;8.60;;;;;;;;;;4407567;32;20516;-79
2021/01/24 16:09:04;;;;;;;16.63;7.70;;;;;;;;;;4407689;32;20174;-78
2021/01/24 16:11:37;;;;;;;14.80;8.37;;;;;;;;;;4407357;32;20227;-77
2021/01/24 16:14:08;;;;;;;15.97;9.87;;;;;;;;;;4407782;32;20225;-78
2021/01/24 16:16:33;;;;;;;18.03;9.57;;;;;;;;;;4397991;32;20166;-77
2021/01/24 16:18:58;;;;;;;17.90;9.50;;;;;;;;;;4391490;32;20675;-79
2021/01/24 16:21:23;;;;;;;18.57;9.30;;;;;;;;;;4392164;32;20193;-78
2021/01/24 16:23:49;;;;;;;18.57;10.77;;;;;;;;;;4380444;32;20162;-79
2021/01/24 16:26:14;;;;;;;18.50;10.33;;;;;;;;;;4383827;32;20185;-79
2021/01/24 16:28:40;;;;;;;17.97;10.37;;;;;;;;;;4391819;32;20588;-77
2021/01/24 16:31:11;;;;;;;17.70;10.87;;;;;;;;;;4392214;32;20159;-78